Huvudsida
METAR-TAF:

METAR-TAF

Flygplatser :

Svolværs flygplats. Helle

Svolvær, Norge

latitud: 68-15N, longitud: 014-40E, höjd: 0 m

Aktuellt väderrapport

Denna rapport gjordes för 52 minuter sedan, klockan 20:50 UTC
Vind 2 kt från nord
Temperatur 2°C
Fuktighet 60%
Tryck 1010 hPa
Sikt 10 km eller mer
Inga moln under 1 500 m eller inga cumulonimbus

METAR: ENSH 232050Z 01002KT CAVOK 02/M05 Q1010 RMK WIND 0150FT /////KT

Tid: 23:42 (21:42 UTC)

Väderprognos

Denna rapport gjordes för 7 timmar och 42 minuter sedan, klockan 14:00 UTC
Prognos gäller från 23 kl. 15 UTC till 23 kl. 22 UTC
Vind 8 kt från nord
Sikt 10 km eller mer
Inga moln under 1 500 m eller inga cumulonimbus

TAF: ENSH 231400Z 2315/2322 35008KT CAVOK

Aktuella väderrapporter och prognoser från 4000 flygplatser (METAR- och TAF-rapporter).

De tillgängliga stationerna syns som gula och röda prickar på kartan.

För musen över prickarna för att se namnen på stationerna.

Klicka sedan för att få väderrapporter och prognoser.

För att ändra kartan: Klicka på de gröna knapparna med ett svart kors på för att zooma in; den gröna knappen med ett streck på för att zooma ut; eller på de gröna pilarna för angränsande kartor.


METAR-TAF: